sensor_id;sensor_type;location;lat;lon;timestamp;pressure;altitude;pressure_sealevel;temperature;humidity
58295;BME280;45705;55.592;37.460;2022-12-19T00:01:23;100184.91;;;-10.44;100.00
58295;BME280;45705;55.592;37.460;2022-12-19T00:03:59;100166.81;;;-10.29;100.00
58295;BME280;45705;55.592;37.460;2022-12-19T00:06:26;100178.50;;;-10.59;100.00
58295;BME280;45705;55.592;37.460;2022-12-19T00:08:53;100182.78;;;-10.58;100.00
58295;BME280;45705;55.592;37.460;2022-12-19T00:11:21;100176.09;;;-10.53;100.00
58295;BME280;45705;55.592;37.460;2022-12-19T00:13:47;100165.94;;;-10.65;100.00
58295;BME280;45705;55.592;37.460;2022-12-19T00:16:16;100181.53;;;-10.54;100.00
58295;BME280;45705;55.592;37.460;2022-12-19T00:18:43;100187.50;;;-10.34;100.00
58295;BME280;45705;55.592;37.460;2022-12-19T00:21:11;100183.41;;;-10.28;100.00
58295;BME280;45705;55.592;37.460;2022-12-19T00:23:37;100185.31;;;-10.39;100.00
58295;BME280;45705;55.592;37.460;2022-12-19T00:28:40;100188.31;;;-10.34;100.00
58295;BME280;45705;55.592;37.460;2022-12-19T00:31:08;100193.06;;;-10.19;100.00
58295;BME280;45705;55.592;37.460;2022-12-19T00:33:34;100200.81;;;-10.00;100.00
58295;BME280;45705;55.592;37.460;2022-12-19T00:36:03;100194.72;;;-9.82;100.00
58295;BME280;45705;55.592;37.460;2022-12-19T00:38:31;100189.47;;;-9.82;100.00
58295;BME280;45705;55.592;37.460;2022-12-19T00:43:32;100189.75;;;-9.85;100.00
58295;BME280;45705;55.592;37.460;2022-12-19T00:46:01;100186.00;;;-9.65;100.00
58295;BME280;45705;55.592;37.460;2022-12-19T00:48:27;100190.41;;;-9.65;100.00
58295;BME280;45705;55.592;37.460;2022-12-19T00:51:20;100181.84;;;-9.49;100.00
58295;BME280;45705;55.592;37.460;2022-12-19T00:53:47;100188.13;;;-9.24;100.00
58295;BME280;45705;55.592;37.460;2022-12-19T00:56:16;100187.03;;;-9.14;100.00
58295;BME280;45705;55.592;37.460;2022-12-19T00:58:43;100183.34;;;-9.21;100.00
58295;BME280;45705;55.592;37.460;2022-12-19T01:01:16;100184.81;;;-9.00;99.83
58295;BME280;45705;55.592;37.460;2022-12-19T01:03:43;100184.28;;;-9.04;99.83
58295;BME280;45705;55.592;37.460;2022-12-19T01:06:11;100177.47;;;-8.88;100.00
58295;BME280;45705;55.592;37.460;2022-12-19T01:08:37;100190.56;;;-9.23;100.00
58295;BME280;45705;55.592;37.460;2022-12-19T01:11:03;100178.81;;;-9.11;100.00
58295;BME280;45705;55.592;37.460;2022-12-19T01:13:30;100177.06;;;-9.28;100.00
58295;BME280;45705;55.592;37.460;2022-12-19T01:16:04;100166.19;;;-9.25;100.00
58295;BME280;45705;55.592;37.460;2022-12-19T01:18:30;100182.53;;;-8.95;100.00
58295;BME280;45705;55.592;37.460;2022-12-19T01:21:00;100182.94;;;-9.08;100.00
58295;BME280;45705;55.592;37.460;2022-12-19T01:23:26;100182.75;;;-9.15;100.00
58295;BME280;45705;55.592;37.460;2022-12-19T01:25:53;100181.69;;;-8.96;100.00
58295;BME280;45705;55.592;37.460;2022-12-19T01:28:21;100176.84;;;-9.08;100.00
58295;BME280;45705;55.592;37.460;2022-12-19T01:30:47;100178.09;;;-9.21;100.00
58295;BME280;45705;55.592;37.460;2022-12-19T01:33:15;100191.75;;;-8.99;100.00
58295;BME280;45705;55.592;37.460;2022-12-19T01:35:42;100178.59;;;-9.17;100.00
58295;BME280;45705;55.592;37.460;2022-12-19T01:38:14;100180.47;;;-9.09;100.00
58295;BME280;45705;55.592;37.460;2022-12-19T01:40:48;100167.66;;;-9.31;100.00
58295;BME280;45705;55.592;37.460;2022-12-19T01:43:13;100168.25;;;-9.19;100.00
58295;BME280;45705;55.592;37.460;2022-12-19T01:45:40;100173.34;;;-8.91;100.00
58295;BME280;45705;55.592;37.460;2022-12-19T01:50:52;100174.06;;;-9.07;100.00
58295;BME280;45705;55.592;37.460;2022-12-19T01:53:20;100179.84;;;-9.03;100.00
58295;BME280;45705;55.592;37.460;2022-12-19T01:55:47;100178.66;;;-8.75;100.00
58295;BME280;45705;55.592;37.460;2022-12-19T01:58:13;100169.00;;;-9.00;100.00
58295;BME280;45705;55.592;37.460;2022-12-19T02:00:41;100168.72;;;-8.55;100.00
58295;BME280;45705;55.592;37.460;2022-12-19T02:03:28;100160.63;;;-8.53;100.00
58295;BME280;45705;55.592;37.460;2022-12-19T02:05:57;100152.41;;;-8.58;100.00
58295;BME280;45705;55.592;37.460;2022-12-19T02:08:25;100156.75;;;-8.16;100.00
58295;BME280;45705;55.592;37.460;2022-12-19T02:10:50;100157.09;;;-8.19;100.00
58295;BME280;45705;55.592;37.460;2022-12-19T02:13:16;100149.34;;;-8.21;100.00
58295;BME280;45705;55.592;37.460;2022-12-19T02:15:53;100155.75;;;-8.23;100.00
58295;BME280;45705;55.592;37.460;2022-12-19T02:18:36;100144.69;;;-8.43;100.00
58295;BME280;45705;55.592;37.460;2022-12-19T02:33:09;100145.56;;;-8.10;100.00
58295;BME280;45705;55.592;37.460;2022-12-19T02:38:40;100142.59;;;-8.15;100.00
58295;BME280;45705;55.592;37.460;2022-12-19T02:43:47;100128.75;;;-8.01;100.00
58295;BME280;45705;55.592;37.460;2022-12-19T02:46:17;100132.72;;;-7.88;100.00
58295;BME280;45705;55.592;37.460;2022-12-19T02:48:44;100130.41;;;-7.83;100.00
58295;BME280;45705;55.592;37.460;2022-12-19T02:51:10;100123.31;;;-7.99;100.00
58295;BME280;45705;55.592;37.460;2022-12-19T02:53:37;100112.44;;;-7.88;99.96
58295;BME280;45705;55.592;37.460;2022-12-19T02:59:01;100118.22;;;-7.84;99.80
58295;BME280;45705;55.592;37.460;2022-12-19T03:07:16;100118.84;;;-8.07;100.00
58295;BME280;45705;55.592;37.460;2022-12-19T03:12:33;100126.41;;;-8.28;100.00
58295;BME280;45705;55.592;37.460;2022-12-19T03:15:01;100108.28;;;-8.07;100.00
58295;BME280;45705;55.592;37.460;2022-12-19T03:17:34;100108.63;;;-8.10;100.00
58295;BME280;45705;55.592;37.460;2022-12-19T03:20:06;100101.69;;;-8.11;100.00
58295;BME280;45705;55.592;37.460;2022-12-19T03:22:33;100110.94;;;-7.99;100.00
58295;BME280;45705;55.592;37.460;2022-12-19T03:24:58;100111.59;;;-8.05;100.00
58295;BME280;45705;55.592;37.460;2022-12-19T03:27:29;100105.34;;;-7.96;100.00
58295;BME280;45705;55.592;37.460;2022-12-19T03:30:03;100111.47;;;-7.87;100.00
58295;BME280;45705;55.592;37.460;2022-12-19T03:32:32;100104.69;;;-7.73;100.00
58295;BME280;45705;55.592;37.460;2022-12-19T03:35:13;100107.63;;;-7.68;100.00
58295;BME280;45705;55.592;37.460;2022-12-19T03:37:42;100098.72;;;-7.83;100.00
58295;BME280;45705;55.592;37.460;2022-12-19T03:40:15;100100.03;;;-7.63;100.00
58295;BME280;45705;55.592;37.460;2022-12-19T03:42:44;100084.16;;;-7.46;99.71
58295;BME280;45705;55.592;37.460;2022-12-19T03:48:07;100071.63;;;-7.53;99.72
58295;BME280;45705;55.592;37.460;2022-12-19T03:50:44;100073.28;;;-7.43;99.69
58295;BME280;45705;55.592;37.460;2022-12-19T03:53:25;100065.69;;;-7.55;99.72
58295;BME280;45705;55.592;37.460;2022-12-19T03:56:04;100076.25;;;-7.38;100.00
58295;BME280;45705;55.592;37.460;2022-12-19T03:58:34;100070.66;;;-7.52;100.00
58295;BME280;45705;55.592;37.460;2022-12-19T04:01:03;100065.38;;;-7.52;100.00
58295;BME280;45705;55.592;37.460;2022-12-19T04:03:30;100071.34;;;-7.58;99.53
58295;BME280;45705;55.592;37.460;2022-12-19T04:05:57;100080.72;;;-7.72;100.00
58295;BME280;45705;55.592;37.460;2022-12-19T04:08:25;100095.06;;;-7.41;100.00
58295;BME280;45705;55.592;37.460;2022-12-19T04:10:57;100089.06;;;-7.27;100.00
58295;BME280;45705;55.592;37.460;2022-12-19T04:13:31;100080.97;;;-7.25;100.00
58295;BME280;45705;55.592;37.460;2022-12-19T04:16:12;100068.72;;;-7.10;100.00
58295;BME280;45705;55.592;37.460;2022-12-19T04:18:46;100057.03;;;-7.24;100.00
58295;BME280;45705;55.592;37.460;2022-12-19T04:21:26;100042.88;;;-7.39;100.00
58295;BME280;45705;55.592;37.460;2022-12-19T04:24:00;100056.44;;;-7.50;100.00
58295;BME280;45705;55.592;37.460;2022-12-19T04:26:27;100045.53;;;-7.39;100.00
58295;BME280;45705;55.592;37.460;2022-12-19T04:28:58;100035.00;;;-7.64;100.00
58295;BME280;45705;55.592;37.460;2022-12-19T04:31:25;100050.47;;;-7.44;100.00
58295;BME280;45705;55.592;37.460;2022-12-19T04:33:51;100054.34;;;-7.07;100.00
58295;BME280;45705;55.592;37.460;2022-12-19T04:36:17;100065.28;;;-7.27;100.00
58295;BME280;45705;55.592;37.460;2022-12-19T04:38:43;100062.38;;;-7.40;100.00
58295;BME280;45705;55.592;37.460;2022-12-19T04:41:09;100072.22;;;-7.18;100.00
58295;BME280;45705;55.592;37.460;2022-12-19T04:43:34;100061.81;;;-7.19;100.00
58295;BME280;45705;55.592;37.460;2022-12-19T04:46:00;100068.28;;;-7.30;100.00
58295;BME280;45705;55.592;37.460;2022-12-19T04:48:26;100066.59;;;-7.15;100.00
58295;BME280;45705;55.592;37.460;2022-12-19T04:50:52;100070.22;;;-7.07;100.00
58295;BME280;45705;55.592;37.460;2022-12-19T04:53:18;100062.50;;;-7.17;100.00
58295;BME280;45705;55.592;37.460;2022-12-19T04:55:43;100055.66;;;-7.12;100.00
58295;BME280;45705;55.592;37.460;2022-12-19T04:58:09;100061.59;;;-7.01;100.00
58295;BME280;45705;55.592;37.460;2022-12-19T05:00:35;100066.88;;;-7.01;100.00
58295;BME280;45705;55.592;37.460;2022-12-19T05:03:01;100074.00;;;-7.10;100.00
58295;BME280;45705;55.592;37.460;2022-12-19T05:05:26;100080.66;;;-7.22;100.00
58295;BME280;45705;55.592;37.460;2022-12-19T05:07:52;100077.72;;;-7.36;100.00
58295;BME280;45705;55.592;37.460;2022-12-19T05:10:18;100067.22;;;-7.04;100.00
58295;BME280;45705;55.592;37.460;2022-12-19T05:12:43;100081.06;;;-7.02;100.00
58295;BME280;45705;55.592;37.460;2022-12-19T05:15:09;100061.22;;;-6.98;100.00
58295;BME280;45705;55.592;37.460;2022-12-19T05:17:36;100073.06;;;-6.78;100.00
58295;BME280;45705;55.592;37.460;2022-12-19T05:20:03;100068.78;;;-6.87;100.00
58295;BME280;45705;55.592;37.460;2022-12-19T05:22:29;100070.38;;;-6.69;100.00
58295;BME280;45705;55.592;37.460;2022-12-19T05:24:54;100093.41;;;-6.78;100.00
58295;BME280;45705;55.592;37.460;2022-12-19T05:27:20;100090.41;;;-7.23;100.00
58295;BME280;45705;55.592;37.460;2022-12-19T05:29:46;100081.16;;;-7.19;100.00
58295;BME280;45705;55.592;37.460;2022-12-19T05:32:12;100080.88;;;-6.93;100.00
58295;BME280;45705;55.592;37.460;2022-12-19T05:34:38;100081.03;;;-6.94;100.00
58295;BME280;45705;55.592;37.460;2022-12-19T05:37:03;100088.34;;;-7.04;100.00
58295;BME280;45705;55.592;37.460;2022-12-19T05:39:29;100078.28;;;-7.01;100.00
58295;BME280;45705;55.592;37.460;2022-12-19T05:41:55;100046.78;;;-6.79;100.00
58295;BME280;45705;55.592;37.460;2022-12-19T05:44:20;100079.97;;;-6.77;100.00
58295;BME280;45705;55.592;37.460;2022-12-19T05:46:46;100075.66;;;-6.69;100.00
58295;BME280;45705;55.592;37.460;2022-12-19T05:49:12;100074.25;;;-6.57;100.00
58295;BME280;45705;55.592;37.460;2022-12-19T05:51:38;100073.31;;;-6.64;100.00
58295;BME280;45705;55.592;37.460;2022-12-19T05:54:04;100075.06;;;-6.80;100.00
58295;BME280;45705;55.592;37.460;2022-12-19T05:56:29;100066.09;;;-6.79;100.00
58295;BME280;45705;55.592;37.460;2022-12-19T05:58:55;100055.53;;;-6.79;100.00
58295;BME280;45705;55.592;37.460;2022-12-19T06:01:23;100048.38;;;-6.70;100.00
58295;BME280;45705;55.592;37.460;2022-12-19T06:03:50;100046.69;;;-6.40;100.00
58295;BME280;45705;55.592;37.460;2022-12-19T06:06:21;100046.41;;;-6.45;100.00
58295;BME280;45705;55.592;37.460;2022-12-19T06:08:51;100033.72;;;-6.26;100.00
58295;BME280;45705;55.592;37.460;2022-12-19T06:11:17;100031.59;;;-6.31;100.00
58295;BME280;45705;55.592;37.460;2022-12-19T06:13:43;100050.06;;;-6.23;100.00
58295;BME280;45705;55.592;37.460;2022-12-19T06:16:14;100053.97;;;-6.34;100.00
58295;BME280;45705;55.592;37.460;2022-12-19T06:18:41;100065.84;;;-6.29;100.00
58295;BME280;45705;55.592;37.460;2022-12-19T06:21:10;100078.41;;;-6.31;100.00
58295;BME280;45705;55.592;37.460;2022-12-19T06:23:36;100073.91;;;-6.54;100.00
58295;BME280;45705;55.592;37.460;2022-12-19T06:26:04;100088.81;;;-6.61;100.00
58295;BME280;45705;55.592;37.460;2022-12-19T06:28:31;100092.09;;;-6.51;100.00
58295;BME280;45705;55.592;37.460;2022-12-19T06:30:58;100080.59;;;-6.66;100.00
58295;BME280;45705;55.592;37.460;2022-12-19T06:33:25;100095.41;;;-6.57;100.00
58295;BME280;45705;55.592;37.460;2022-12-19T06:36:03;100074.41;;;-6.82;100.00
58295;BME280;45705;55.592;37.460;2022-12-19T06:38:31;100084.38;;;-6.61;100.00
58295;BME280;45705;55.592;37.460;2022-12-19T06:40:57;100070.50;;;-6.40;100.00
58295;BME280;45705;55.592;37.460;2022-12-19T06:43:41;100076.75;;;-6.32;100.00
58295;BME280;45705;55.592;37.460;2022-12-19T06:46:07;100080.41;;;-6.34;100.00
58295;BME280;45705;55.592;37.460;2022-12-19T06:48:33;100083.38;;;-6.60;100.00
58295;BME280;45705;55.592;37.460;2022-12-19T06:50:59;100077.53;;;-6.01;100.00
58295;BME280;45705;55.592;37.460;2022-12-19T06:53:25;100085.97;;;-6.20;100.00
58295;BME280;45705;55.592;37.460;2022-12-19T06:55:53;100059.19;;;-6.25;100.00
58295;BME280;45705;55.592;37.460;2022-12-19T06:58:20;100073.91;;;-6.54;100.00
58295;BME280;45705;55.592;37.460;2022-12-19T07:00:45;100063.13;;;-6.21;100.00
58295;BME280;45705;55.592;37.460;2022-12-19T07:03:14;100056.13;;;-6.14;100.00
58295;BME280;45705;55.592;37.460;2022-12-19T07:05:41;100027.19;;;-6.39;100.00
58295;BME280;45705;55.592;37.460;2022-12-19T07:08:08;100060.19;;;-6.26;100.00
58295;BME280;45705;55.592;37.460;2022-12-19T07:10:34;100045.47;;;-6.29;100.00
58295;BME280;45705;55.592;37.460;2022-12-19T07:13:00;100052.31;;;-6.35;100.00
58295;BME280;45705;55.592;37.460;2022-12-19T07:15:26;100054.09;;;-5.89;100.00
58295;BME280;45705;55.592;37.460;2022-12-19T07:17:52;100011.69;;;-6.04;100.00
58295;BME280;45705;55.592;37.460;2022-12-19T07:20:19;100049.94;;;-6.06;100.00
58295;BME280;45705;55.592;37.460;2022-12-19T07:22:46;100048.97;;;-5.90;100.00
58295;BME280;45705;55.592;37.460;2022-12-19T07:25:12;100045.47;;;-5.68;100.00
58295;BME280;45705;55.592;37.460;2022-12-19T07:27:39;100047.63;;;-5.57;100.00
58295;BME280;45705;55.592;37.460;2022-12-19T07:30:05;100057.97;;;-5.62;100.00
58295;BME280;45705;55.592;37.460;2022-12-19T07:32:32;100059.59;;;-5.61;100.00
58295;BME280;45705;55.592;37.460;2022-12-19T07:34:58;100055.03;;;-5.67;100.00
58295;BME280;45705;55.592;37.460;2022-12-19T07:37:24;100044.47;;;-5.37;100.00
58295;BME280;45705;55.592;37.460;2022-12-19T07:39:50;100057.19;;;-5.32;100.00
58295;BME280;45705;55.592;37.460;2022-12-19T07:42:17;100064.69;;;-5.74;100.00
58295;BME280;45705;55.592;37.460;2022-12-19T07:44:43;100045.47;;;-6.06;100.00
58295;BME280;45705;55.592;37.460;2022-12-19T07:47:09;100088.03;;;-5.93;100.00
58295;BME280;45705;55.592;37.460;2022-12-19T07:49:35;100081.94;;;-5.93;100.00
58295;BME280;45705;55.592;37.460;2022-12-19T07:52:00;100082.13;;;-5.80;100.00
58295;BME280;45705;55.592;37.460;2022-12-19T07:54:26;100078.78;;;-5.59;100.00
58295;BME280;45705;55.592;37.460;2022-12-19T07:56:52;100086.13;;;-5.99;100.00
58295;BME280;45705;55.592;37.460;2022-12-19T07:59:18;100078.94;;;-5.75;100.00
58295;BME280;45705;55.592;37.460;2022-12-19T08:01:43;100074.22;;;-5.65;100.00
58295;BME280;45705;55.592;37.460;2022-12-19T08:04:09;100076.47;;;-5.77;100.00
58295;BME280;45705;55.592;37.460;2022-12-19T08:06:35;100067.97;;;-5.72;100.00
58295;BME280;45705;55.592;37.460;2022-12-19T08:09:00;100066.78;;;-5.46;100.00
58295;BME280;45705;55.592;37.460;2022-12-19T08:11:26;100059.00;;;-5.48;100.00
58295;BME280;45705;55.592;37.460;2022-12-19T08:13:55;100048.13;;;-5.38;100.00
58295;BME280;45705;55.592;37.460;2022-12-19T08:16:21;100041.34;;;-5.56;100.00
58295;BME280;45705;55.592;37.460;2022-12-19T08:18:47;100052.69;;;-5.32;100.00
58295;BME280;45705;55.592;37.460;2022-12-19T08:21:13;100054.06;;;-5.36;100.00
58295;BME280;45705;55.592;37.460;2022-12-19T08:23:39;100048.31;;;-5.25;100.00
58295;BME280;45705;55.592;37.460;2022-12-19T08:26:07;100048.31;;;-5.25;100.00
58295;BME280;45705;55.592;37.460;2022-12-19T08:28:34;100043.72;;;-5.46;100.00
58295;BME280;45705;55.592;37.460;2022-12-19T08:31:14;100040.28;;;-5.46;100.00
58295;BME280;45705;55.592;37.460;2022-12-19T08:33:41;100051.56;;;-5.53;100.00
58295;BME280;45705;55.592;37.460;2022-12-19T08:36:09;100047.03;;;-5.29;100.00
58295;BME280;45705;55.592;37.460;2022-12-19T08:38:36;100041.16;;;-5.39;100.00
58295;BME280;45705;55.592;37.460;2022-12-19T08:41:02;100039.44;;;-5.32;100.00
58295;BME280;45705;55.592;37.460;2022-12-19T08:43:28;100038.44;;;-5.31;100.00
58295;BME280;45705;55.592;37.460;2022-12-19T08:45:55;100044.00;;;-5.11;100.00
58295;BME280;45705;55.592;37.460;2022-12-19T08:48:20;100049.13;;;-5.09;100.00
58295;BME280;45705;55.592;37.460;2022-12-19T08:53:20;100041.06;;;-5.16;100.00
58295;BME280;45705;55.592;37.460;2022-12-19T08:55:46;100050.34;;;-4.76;100.00
58295;BME280;45705;55.592;37.460;2022-12-19T08:58:11;100032.91;;;-4.85;100.00
58295;BME280;45705;55.592;37.460;2022-12-19T09:00:38;100046.59;;;-4.66;100.00
58295;BME280;45705;55.592;37.460;2022-12-19T09:03:04;100037.03;;;-4.97;100.00
58295;BME280;45705;55.592;37.460;2022-12-19T09:05:30;100051.75;;;-4.80;100.00
58295;BME280;45705;55.592;37.460;2022-12-19T09:07:55;100037.19;;;-4.69;100.00
58295;BME280;45705;55.592;37.460;2022-12-19T09:10:21;100039.25;;;-4.64;100.00
58295;BME280;45705;55.592;37.460;2022-12-19T09:12:47;100034.59;;;-4.62;100.00
58295;BME280;45705;55.592;37.460;2022-12-19T09:15:13;100045.22;;;-4.62;100.00
58295;BME280;45705;55.592;37.460;2022-12-19T09:17:38;100048.31;;;-4.59;100.00
58295;BME280;45705;55.592;37.460;2022-12-19T09:20:04;100036.94;;;-4.89;100.00
58295;BME280;45705;55.592;37.460;2022-12-19T09:22:30;100034.63;;;-4.41;100.00
58295;BME280;45705;55.592;37.460;2022-12-19T09:24:56;100037.72;;;-4.37;100.00
58295;BME280;45705;55.592;37.460;2022-12-19T09:27:22;100010.25;;;-4.66;100.00
58295;BME280;45705;55.592;37.460;2022-12-19T09:29:48;100022.56;;;-4.22;100.00
58295;BME280;45705;55.592;37.460;2022-12-19T09:32:14;100026.41;;;-4.46;100.00
58295;BME280;45705;55.592;37.460;2022-12-19T09:34:39;100030.00;;;-4.53;100.00
58295;BME280;45705;55.592;37.460;2022-12-19T09:37:07;100030.44;;;-4.50;100.00
58295;BME280;45705;55.592;37.460;2022-12-19T09:39:34;100030.25;;;-4.27;100.00
58295;BME280;45705;55.592;37.460;2022-12-19T09:44:55;100031.00;;;-4.11;100.00
58295;BME280;45705;55.592;37.460;2022-12-19T09:47:28;100019.28;;;-3.96;100.00
58295;BME280;45705;55.592;37.460;2022-12-19T09:49:56;100015.81;;;-4.46;100.00
58295;BME280;45705;55.592;37.460;2022-12-19T09:57:40;100024.25;;;-4.14;100.00
58295;BME280;45705;55.592;37.460;2022-12-19T10:00:15;100027.69;;;-4.20;100.00
58295;BME280;45705;55.592;37.460;2022-12-19T10:03:03;100028.94;;;-4.16;100.00
58295;BME280;45705;55.592;37.460;2022-12-19T10:08:18;100021.53;;;-3.99;100.00
58295;BME280;45705;55.592;37.460;2022-12-19T10:14:16;100029.13;;;-3.68;100.00
58295;BME280;45705;55.592;37.460;2022-12-19T10:17:18;100017.19;;;-3.79;100.00
58295;BME280;45705;55.592;37.460;2022-12-19T10:22:58;100038.28;;;-3.99;100.00
58295;BME280;45705;55.592;37.460;2022-12-19T10:28:39;100000.09;;;-3.69;100.00
58295;BME280;45705;55.592;37.460;2022-12-19T10:31:48;100020.19;;;-3.60;100.00
58295;BME280;45705;55.592;37.460;2022-12-19T10:36:57;100024.66;;;-3.61;100.00
58295;BME280;45705;55.592;37.460;2022-12-19T10:39:31;100032.25;;;-3.58;100.00
58295;BME280;45705;55.592;37.460;2022-12-19T10:42:26;100028.53;;;-3.35;100.00
58295;BME280;45705;55.592;37.460;2022-12-19T10:44:56;100023.41;;;-3.65;100.00
58295;BME280;45705;55.592;37.460;2022-12-19T10:47:23;100018.41;;;-3.81;100.00
58295;BME280;45705;55.592;37.460;2022-12-19T10:49:49;100032.78;;;-3.69;100.00
58295;BME280;45705;55.592;37.460;2022-12-19T10:57:59;100021.69;;;-3.79;100.00
58295;BME280;45705;55.592;37.460;2022-12-19T11:00:26;100024.53;;;-3.81;100.00
58295;BME280;45705;55.592;37.460;2022-12-19T11:03:09;100015.44;;;-3.65;100.00
58295;BME280;45705;55.592;37.460;2022-12-19T11:05:47;100031.97;;;-3.41;100.00
58295;BME280;45705;55.592;37.460;2022-12-19T11:08:39;100022.78;;;-3.67;100.00
58295;BME280;45705;55.592;37.460;2022-12-19T11:16:01;100034.94;;;-3.16;100.00
58295;BME280;45705;55.592;37.460;2022-12-19T11:18:40;100029.84;;;-3.18;100.00
58295;BME280;45705;55.592;37.460;2022-12-19T11:24:09;100040.63;;;-3.26;100.00
58295;BME280;45705;55.592;37.460;2022-12-19T11:29:27;100038.66;;;-3.45;100.00
58295;BME280;45705;55.592;37.460;2022-12-19T11:32:02;100042.19;;;-3.38;100.00
58295;BME280;45705;55.592;37.460;2022-12-19T11:34:31;100042.47;;;-3.26;100.00
58295;BME280;45705;55.592;37.460;2022-12-19T11:42:22;100053.00;;;-3.46;100.00
58295;BME280;45705;55.592;37.460;2022-12-19T11:45:13;100056.63;;;-3.19;100.00
58295;BME280;45705;55.592;37.460;2022-12-19T11:50:19;100053.44;;;-3.43;100.00
58295;BME280;45705;55.592;37.460;2022-12-19T11:55:41;100057.19;;;-3.30;100.00
58295;BME280;45705;55.592;37.460;2022-12-19T11:58:11;100057.56;;;-3.33;100.00
58295;BME280;45705;55.592;37.460;2022-12-19T12:00:48;100059.47;;;-3.56;100.00
58295;BME280;45705;55.592;37.460;2022-12-19T12:06:18;100065.75;;;-3.35;100.00
58295;BME280;45705;55.592;37.460;2022-12-19T12:08:55;100050.50;;;-3.54;100.00
58295;BME280;45705;55.592;37.460;2022-12-19T12:14:40;100053.97;;;-3.54;100.00
58295;BME280;45705;55.592;37.460;2022-12-19T12:20:35;100067.63;;;-3.57;100.00
58295;BME280;45705;55.592;37.460;2022-12-19T12:23:20;100060.28;;;-3.55;100.00
58295;BME280;45705;55.592;37.460;2022-12-19T12:25:55;100064.16;;;-3.58;100.00
58295;BME280;45705;55.592;37.460;2022-12-19T12:31:00;100076.59;;;-3.30;100.00
58295;BME280;45705;55.592;37.460;2022-12-19T12:33:41;100068.97;;;-3.11;100.00
58295;BME280;45705;55.592;37.460;2022-12-19T12:36:24;100075.50;;;-3.42;100.00
58295;BME280;45705;55.592;37.460;2022-12-19T12:42:06;100084.22;;;-3.27;100.00
58295;BME280;45705;55.592;37.460;2022-12-19T12:44:41;100079.44;;;-3.03;100.00
58295;BME280;45705;55.592;37.460;2022-12-19T12:47:24;100105.28;;;-3.25;100.00
58295;BME280;45705;55.592;37.460;2022-12-19T12:49:57;100098.47;;;-3.06;100.00
58295;BME280;45705;55.592;37.460;2022-12-19T12:52:40;100091.41;;;-3.21;100.00
58295;BME280;45705;55.592;37.460;2022-12-19T12:55:18;100103.47;;;-3.18;100.00
58295;BME280;45705;55.592;37.460;2022-12-19T12:57:45;100098.91;;;-3.31;100.00
58295;BME280;45705;55.592;37.460;2022-12-19T13:00:28;100103.44;;;-3.25;100.00
58295;BME280;45705;55.592;37.460;2022-12-19T13:03:10;100105.66;;;-3.28;100.00
58295;BME280;45705;55.592;37.460;2022-12-19T13:11:01;100100.72;;;-3.03;100.00
58295;BME280;45705;55.592;37.460;2022-12-19T13:13:50;100123.41;;;-2.72;100.00
58295;BME280;45705;55.592;37.460;2022-12-19T13:37:44;100122.53;;;-2.80;100.00
58295;BME280;45705;55.592;37.460;2022-12-19T13:45:52;100128.22;;;-2.89;100.00
58295;BME280;45705;55.592;37.460;2022-12-19T13:48:40;100131.94;;;-2.84;100.00
58295;BME280;45705;55.592;37.460;2022-12-19T13:51:09;100128.34;;;-2.69;100.00
58295;BME280;45705;55.592;37.460;2022-12-19T13:53:35;100137.50;;;-2.79;100.00
58295;BME280;45705;55.592;37.460;2022-12-19T13:56:04;100149.94;;;-2.86;100.00
58295;BME280;45705;55.592;37.460;2022-12-19T13:58:55;100130.72;;;-2.81;100.00
58295;BME280;45705;55.592;37.460;2022-12-19T14:03:54;100147.97;;;-3.05;100.00
58295;BME280;45705;55.592;37.460;2022-12-19T14:06:24;100151.00;;;-2.80;100.00
58295;BME280;45705;55.592;37.460;2022-12-19T14:08:52;100157.69;;;-2.91;100.00
58295;BME280;45705;55.592;37.460;2022-12-19T14:11:20;100145.50;;;-2.79;100.00
58295;BME280;45705;55.592;37.460;2022-12-19T14:13:52;100155.38;;;-2.66;100.00
58295;BME280;45705;55.592;37.460;2022-12-19T14:16:39;100154.59;;;-2.60;100.00
58295;BME280;45705;55.592;37.460;2022-12-19T14:19:19;100149.31;;;-2.53;100.00
58295;BME280;45705;55.592;37.460;2022-12-19T14:21:45;100162.06;;;-2.42;100.00
58295;BME280;45705;55.592;37.460;2022-12-19T14:24:16;100162.78;;;-2.61;100.00
58295;BME280;45705;55.592;37.460;2022-12-19T14:26:45;100163.47;;;-2.46;100.00
58295;BME280;45705;55.592;37.460;2022-12-19T14:29:22;100166.94;;;-2.52;100.00
58295;BME280;45705;55.592;37.460;2022-12-19T14:31:51;100155.78;;;-2.62;100.00
58295;BME280;45705;55.592;37.460;2022-12-19T14:34:28;100160.00;;;-2.40;100.00
58295;BME280;45705;55.592;37.460;2022-12-19T14:36:57;100166.53;;;-2.49;100.00
58295;BME280;45705;55.592;37.460;2022-12-19T14:39:33;100159.84;;;-2.73;100.00
58295;BME280;45705;55.592;37.460;2022-12-19T14:42:05;100168.09;;;-2.61;100.00
58295;BME280;45705;55.592;37.460;2022-12-19T14:44:53;100158.94;;;-2.52;100.00
58295;BME280;45705;55.592;37.460;2022-12-19T14:47:33;100176.31;;;-2.56;100.00
58295;BME280;45705;55.592;37.460;2022-12-19T14:50:00;100172.84;;;-2.91;100.00
58295;BME280;45705;55.592;37.460;2022-12-19T14:57:40;100161.69;;;-2.32;100.00
58295;BME280;45705;55.592;37.460;2022-12-19T15:00:26;100159.94;;;-2.53;100.00
58295;BME280;45705;55.592;37.460;2022-12-19T15:02:53;100160.75;;;-2.52;100.00
58295;BME280;45705;55.592;37.460;2022-12-19T15:05:21;100171.13;;;-2.71;100.00
58295;BME280;45705;55.592;37.460;2022-12-19T15:07:49;100172.09;;;-2.44;100.00
58295;BME280;45705;55.592;37.460;2022-12-19T15:10:24;100153.66;;;-2.39;100.00
58295;BME280;45705;55.592;37.460;2022-12-19T15:15:55;100177.34;;;-2.09;100.00